Time;durP1;ratioP1;P1;durP2;ratioP2;P2;SDS_P1;SDS_P2;PMS_P1;PMS_P2;Temp;Humidity;BMP_temperature;BMP_pressure;BME280_temperature;BME280_humidity;BME280_pressure;Samples;Min_cycle;Max_cycle;Signal;HPM_P1;HPM_P2
2023/12/10 00:00:43;;;;;;;0.00;0.00;;;;;;;8.37;100.00;97746.50;5154535;27;20275;-52
2023/12/10 00:03:29;;;;;;;0.00;0.00;;;;;;;8.43;100.00;97750.50;5155796;27;20254;-51
2023/12/10 00:06:16;;;;;;;0.00;0.00;;;;;;;8.44;100.00;97741.59;5156002;27;20272;-52
2023/12/10 00:09:03;;;;;;;0.00;0.00;;;;;;;8.51;100.00;97751.56;5155655;27;20196;-51
2023/12/10 00:11:51;;;;;;;0.00;0.00;;;;;;;8.50;100.00;97747.25;5155857;27;20203;-52
2023/12/10 00:14:38;;;;;;;0.00;0.00;;;;;;;8.51;100.00;97756.84;5155154;27;20196;-52
2023/12/10 00:17:25;;;;;;;0.10;0.10;;;;;;;8.51;100.00;97753.38;5155065;27;20188;-51
2023/12/10 00:20:12;;;;;;;0.00;0.00;;;;;;;8.47;100.00;97747.47;5155178;27;20328;-52
2023/12/10 00:22:59;;;;;;;0.00;0.00;;;;;;;8.48;100.00;97748.31;5155001;27;20228;-51
2023/12/10 00:25:46;;;;;;;0.00;0.00;;;;;;;8.44;100.00;97753.00;5155224;27;20278;-52
2023/12/10 00:28:35;;;;;;;0.00;0.00;;;;;;;8.45;100.00;97754.69;5154924;27;20252;-52
2023/12/10 00:31:22;;;;;;;0.00;0.00;;;;;;;8.36;100.00;97752.75;5154190;27;20184;-51
2023/12/10 00:34:09;;;;;;;0.00;0.00;;;;;;;8.31;100.00;97755.72;5155447;27;20196;-52
2023/12/10 00:36:56;;;;;;;0.10;0.10;;;;;;;8.35;100.00;97756.34;5154877;27;20184;-51
2023/12/10 00:39:43;;;;;;;0.00;0.00;;;;;;;8.33;100.00;97760.88;5155182;27;20258;-52
2023/12/10 00:42:30;;;;;;;0.00;0.00;;;;;;;8.26;100.00;97767.59;5154872;27;20212;-51
2023/12/10 00:45:18;;;;;;;0.00;0.00;;;;;;;8.31;100.00;97768.91;5153815;27;20196;-51
2023/12/10 00:48:06;;;;;;;0.00;0.00;;;;;;;8.28;100.00;97763.03;5155187;27;20188;-51
2023/12/10 00:50:52;;;;;;;0.00;0.00;;;;;;;8.35;100.00;97766.91;5154675;27;20716;-51
2023/12/10 00:53:39;;;;;;;0.00;0.00;;;;;;;8.37;100.00;97770.25;5154865;27;20193;-52
2023/12/10 00:56:26;;;;;;;0.03;0.03;;;;;;;8.30;100.00;97772.53;5138662;27;20231;-56
2023/12/10 00:59:13;;;;;;;0.00;0.00;;;;;;;8.35;100.00;97773.97;5154561;27;20188;-54
2023/12/10 01:02:02;;;;;;;0.00;0.00;;;;;;;8.48;100.00;97787.91;5153435;27;20212;-54
2023/12/10 01:04:48;;;;;;;0.10;0.10;;;;;;;8.31;100.00;97791.81;5154800;27;20326;-55
2023/12/10 01:07:35;;;;;;;0.00;0.00;;;;;;;8.43;100.00;97806.72;5154649;27;20196;-55
2023/12/10 01:10:22;;;;;;;0.10;0.10;;;;;;;8.31;100.00;97815.56;5154789;27;20208;-55
2023/12/10 01:13:09;;;;;;;0.00;0.00;;;;;;;8.31;100.00;97815.56;5154279;27;20765;-54
2023/12/10 01:15:56;;;;;;;0.00;0.00;;;;;;;8.28;100.00;97823.69;5153310;27;20269;-54
2023/12/10 01:18:45;;;;;;;0.00;0.00;;;;;;;8.27;100.00;97825.50;5154702;27;20196;-54
2023/12/10 01:21:34;;;;;;;0.00;0.00;;;;;;;8.28;100.00;97823.69;5154702;27;20306;-54
2023/12/10 01:24:21;;;;;;;0.10;0.10;;;;;;;8.29;100.00;97831.47;5154470;27;20260;-55
2023/12/10 01:27:09;;;;;;;0.00;0.00;;;;;;;8.27;100.00;97819.38;5154294;27;20317;-54
2023/12/10 01:29:55;;;;;;;0.00;0.00;;;;;;;8.29;100.00;97826.19;5153098;27;20189;-54
2023/12/10 01:32:42;;;;;;;0.00;0.00;;;;;;;8.32;100.00;97828.63;5154283;27;20230;-54
2023/12/10 01:35:31;;;;;;;0.00;0.00;;;;;;;8.35;100.00;97817.03;5154554;27;20265;-54
2023/12/10 01:38:17;;;;;;;0.00;0.00;;;;;;;8.46;100.00;97832.03;5154359;27;20383;-55
2023/12/10 01:41:05;;;;;;;0.00;0.00;;;;;;;8.48;100.00;97827.47;5154046;27;20192;-54
2023/12/10 01:43:52;;;;;;;0.00;0.00;;;;;;;8.49;100.00;97830.00;5154109;27;20323;-53
2023/12/10 01:46:39;;;;;;;0.00;0.00;;;;;;;8.55;100.00;97828.69;5153203;27;20192;-54
2023/12/10 01:49:28;;;;;;;0.10;0.10;;;;;;;8.65;100.00;97820.91;5154064;27;20299;-54
2023/12/10 01:52:17;;;;;;;0.00;0.00;;;;;;;8.69;100.00;97836.38;5154148;27;20192;-54
2023/12/10 01:55:05;;;;;;;0.00;0.00;;;;;;;8.67;100.00;97845.38;5154261;27;20201;-53
2023/12/10 01:57:52;;;;;;;0.00;0.00;;;;;;;8.66;100.00;97839.25;5154035;27;20235;-55
2023/12/10 02:00:39;;;;;;;0.00;0.00;;;;;;;8.62;100.00;97845.72;5152715;27;20680;-53
2023/12/10 02:03:27;;;;;;;0.00;0.00;;;;;;;8.58;100.00;97855.66;5153927;27;20215;-54
2023/12/10 02:06:14;;;;;;;0.00;0.00;;;;;;;8.62;100.00;97864.22;5153850;27;20676;-54
2023/12/10 02:09:09;;;;;;;0.10;0.10;;;;;;;8.66;100.00;97873.56;5157934;27;20189;-54
2023/12/10 02:11:56;;;;;;;0.00;0.00;;;;;;;8.70;100.00;97869.75;5157910;27;20683;-54
2023/12/10 02:14:43;;;;;;;0.10;0.10;;;;;;;8.73;100.00;97869.50;5157825;27;20185;-55
2023/12/10 02:17:30;;;;;;;0.00;0.00;;;;;;;8.71;100.00;97875.84;5158063;27;20267;-54
2023/12/10 02:20:18;;;;;;;0.10;0.10;;;;;;;8.70;100.00;97872.38;5158007;27;20185;-54
2023/12/10 02:23:08;;;;;;;0.10;0.10;;;;;;;8.69;100.00;97873.34;5157746;27;20217;-54
2023/12/10 02:25:57;;;;;;;0.00;0.00;;;;;;;8.71;100.00;97876.69;5158044;27;20188;-54
2023/12/10 02:28:44;;;;;;;0.00;0.00;;;;;;;8.68;100.00;97876.06;5157396;27;20228;-54
2023/12/10 02:31:31;;;;;;;0.00;0.00;;;;;;;8.67;100.00;97874.41;5156692;27;20193;-54
2023/12/10 02:34:17;;;;;;;0.00;0.00;;;;;;;8.66;100.00;97867.44;5157669;27;20206;-54
2023/12/10 02:37:05;;;;;;;0.00;0.00;;;;;;;8.64;100.00;97872.84;5157532;27;20197;-54
2023/12/10 02:39:53;;;;;;;0.00;0.00;;;;;;;8.64;100.00;97867.56;5157197;27;20537;-54
2023/12/10 02:42:41;;;;;;;0.10;0.10;;;;;;;8.64;100.00;97872.84;5157190;27;20204;-55
2023/12/10 02:45:27;;;;;;;0.00;0.00;;;;;;;8.69;100.00;97889.19;5156242;27;20189;-54
2023/12/10 02:48:14;;;;;;;0.10;0.10;;;;;;;8.72;100.00;97882.81;5157414;27;20237;-54
2023/12/10 02:51:01;;;;;;;0.00;0.00;;;;;;;8.66;100.00;97881.47;5157326;27;20193;-54
2023/12/10 02:53:48;;;;;;;0.00;0.00;;;;;;;8.61;100.00;97881.00;5157275;27;20189;-54
2023/12/10 02:56:35;;;;;;;0.00;0.00;;;;;;;8.64;100.00;97886.03;5157163;27;20282;-54
2023/12/10 02:59:23;;;;;;;0.00;0.00;;;;;;;8.68;100.00;97890.09;5157274;27;20237;-54
2023/12/10 03:02:10;;;;;;;0.00;0.00;;;;;;;8.71;100.00;97892.53;5156462;27;20193;-54
2023/12/10 03:04:56;;;;;;;0.10;0.10;;;;;;;8.68;100.00;97900.66;5156950;27;20193;-54
2023/12/10 03:07:43;;;;;;;0.00;0.00;;;;;;;8.61;100.00;97904.75;5157081;27;20201;-54
2023/12/10 03:10:30;;;;;;;0.00;0.00;;;;;;;8.53;100.00;97901.84;5157047;27;20188;-54
2023/12/10 03:13:17;;;;;;;0.00;0.00;;;;;;;8.58;100.00;97904.97;5156941;27;20189;-54
2023/12/10 03:16:06;;;;;;;0.00;0.00;;;;;;;8.59;100.00;97910.16;5155523;27;20207;-54
2023/12/10 03:18:53;;;;;;;0.10;0.10;;;;;;;8.62;100.00;97902.97;5156361;27;20706;-53
2023/12/10 03:21:40;;;;;;;0.00;0.00;;;;;;;8.63;100.00;97909.91;5156818;27;20215;-54
2023/12/10 03:24:26;;;;;;;0.00;0.00;;;;;;;8.58;100.00;97899.69;5156529;27;20220;-51
2023/12/10 03:27:13;;;;;;;0.00;0.00;;;;;;;8.52;100.00;97908.09;5156438;27;20232;-52
2023/12/10 03:30:00;;;;;;;0.00;0.00;;;;;;;8.46;100.00;97905.91;5155214;27;20281;-51
2023/12/10 03:32:49;;;;;;;0.10;0.10;;;;;;;8.46;100.00;97904.09;5156744;27;20379;-52
2023/12/10 03:35:35;;;;;;;0.07;0.07;;;;;;;8.49;100.00;97892.47;5156572;27;20210;-52
2023/12/10 03:38:22;;;;;;;0.10;0.10;;;;;;;8.39;100.00;97902.03;5156585;27;20263;-51
2023/12/10 03:41:09;;;;;;;0.00;0.00;;;;;;;8.35;100.00;97901.44;5156291;27;20258;-52
2023/12/10 03:43:56;;;;;;;0.00;0.00;;;;;;;8.22;100.00;97909.41;5156075;27;20224;-51
2023/12/10 03:46:43;;;;;;;0.00;0.00;;;;;;;8.20;100.00;97921.88;5154911;27;20268;-52
2023/12/10 03:49:31;;;;;;;0.00;0.00;;;;;;;8.25;100.00;97918.88;5156088;27;20223;-52
2023/12/10 03:52:18;;;;;;;0.10;0.10;;;;;;;8.22;100.00;97925.22;5155989;27;20322;-51
2023/12/10 03:55:06;;;;;;;0.10;0.10;;;;;;;8.22;100.00;97927.03;5156166;27;20184;-51
2023/12/10 03:57:52;;;;;;;0.10;0.10;;;;;;;8.32;100.00;97930.66;5156048;27;20677;-51
2023/12/10 04:00:39;;;;;;;0.00;0.00;;;;;;;8.33;100.00;97934.97;5154655;27;20192;-52
2023/12/10 04:03:26;;;;;;;0.00;0.00;;;;;;;8.38;100.00;97946.06;5155500;27;20271;-52
2023/12/10 04:06:14;;;;;;;0.00;0.00;;;;;;;8.40;100.00;97944.16;5155920;27;20246;-52
2023/12/10 04:09:01;;;;;;;0.00;0.00;;;;;;;8.42;100.00;97949.31;5155835;27;20348;-51
2023/12/10 04:11:48;;;;;;;0.00;0.00;;;;;;;8.41;100.00;97953.75;5155598;27;20208;-51
2023/12/10 04:14:35;;;;;;;0.00;0.00;;;;;;;8.35;100.00;97951.56;5155758;27;20310;-51
2023/12/10 04:17:22;;;;;;;0.00;0.00;;;;;;;8.35;100.00;97966.56;5155493;27;20678;-52
2023/12/10 04:20:10;;;;;;;0.00;0.00;;;;;;;8.30;100.00;97975.63;5155532;27;20193;-51
2023/12/10 04:22:58;;;;;;;0.10;0.10;;;;;;;8.26;100.00;97976.78;5155553;27;20201;-52
2023/12/10 04:25:45;;;;;;;0.10;0.10;;;;;;;8.24;100.00;97975.22;5155412;27;20196;-51
2023/12/10 04:28:32;;;;;;;0.00;0.00;;;;;;;8.22;100.00;97993.81;5155104;27;20228;-51
2023/12/10 04:31:19;;;;;;;0.00;0.00;;;;;;;8.19;100.00;97985.25;5153348;27;20270;-51
2023/12/10 04:34:06;;;;;;;0.00;0.00;;;;;;;8.20;100.00;97992.22;5155236;27;20188;-51
2023/12/10 04:36:53;;;;;;;0.10;0.10;;;;;;;8.26;100.00;97989.13;5155163;27;20176;-52
2023/12/10 04:39:41;;;;;;;0.07;0.07;;;;;;;8.26;100.00;97986.50;5155433;27;20187;-51
2023/12/10 04:42:29;;;;;;;0.10;0.10;;;;;;;8.21;100.00;97988.66;5154825;27;20197;-51
2023/12/10 04:45:16;;;;;;;0.00;0.00;;;;;;;8.26;100.00;97984.69;5153524;27;20669;-51
2023/12/10 04:48:04;;;;;;;0.10;0.10;;;;;;;8.32;100.00;97994.81;5154907;27;20259;-52
2023/12/10 04:50:51;;;;;;;0.03;0.03;;;;;;;8.36;100.00;97984.06;5154756;27;20192;-51
2023/12/10 04:53:38;;;;;;;0.00;0.00;;;;;;;8.37;100.00;97991.84;5154843;27;20185;-51
2023/12/10 04:56:26;;;;;;;0.03;0.03;;;;;;;8.36;100.00;97987.53;5154905;27;20192;-52
2023/12/10 04:59:13;;;;;;;0.10;0.10;;;;;;;8.36;100.00;97984.91;5154626;27;20662;-51
2023/12/10 05:02:00;;;;;;;0.00;0.00;;;;;;;8.43;100.00;97990.56;5153682;27;20196;-51
2023/12/10 05:04:46;;;;;;;0.00;0.00;;;;;;;8.43;100.00;97978.22;5154759;27;20212;-52
2023/12/10 05:07:33;;;;;;;0.00;0.00;;;;;;;8.43;100.00;97977.38;5154424;27;20670;-52
2023/12/10 05:10:21;;;;;;;0.00;0.00;;;;;;;8.40;100.00;97988.19;5154472;27;20760;-51
2023/12/10 05:13:09;;;;;;;0.00;0.00;;;;;;;8.46;100.00;98004.38;5154880;27;20246;-51
2023/12/10 05:15:57;;;;;;;0.00;0.00;;;;;;;8.43;100.00;98009.88;5153259;27;20196;-54
2023/12/10 05:18:43;;;;;;;0.00;0.00;;;;;;;8.46;100.00;97999.09;5154395;27;20208;-54
2023/12/10 05:21:33;;;;;;;0.03;0.03;;;;;;;8.48;100.00;97998.97;5154399;27;20193;-54
2023/12/10 05:24:19;;;;;;;0.10;0.10;;;;;;;8.45;100.00;97999.22;5154234;27;20212;-53
2023/12/10 05:27:06;;;;;;;0.10;0.10;;;;;;;8.49;100.00;97998.88;5154266;27;20236;-54
2023/12/10 05:29:54;;;;;;;0.10;0.10;;;;;;;8.52;100.00;98021.56;5153129;27;20212;-54
2023/12/10 05:32:41;;;;;;;0.10;0.10;;;;;;;8.51;100.00;98028.63;5154250;27;20184;-51
2023/12/10 05:35:29;;;;;;;0.10;0.10;;;;;;;8.53;100.00;98033.78;5154296;27;20235;-51
2023/12/10 05:38:15;;;;;;;0.00;0.00;;;;;;;8.41;100.00;98019.72;5154341;27;20196;-51
2023/12/10 05:41:02;;;;;;;0.07;0.07;;;;;;;8.43;100.00;98031.00;5154513;27;20262;-51
2023/12/10 05:43:49;;;;;;;0.00;0.00;;;;;;;8.39;100.00;98036.59;5158396;27;20184;-51
2023/12/10 05:46:38;;;;;;;0.00;0.00;;;;;;;8.44;100.00;98045.03;5157225;27;20200;-50
2023/12/10 05:49:24;;;;;;;0.00;0.00;;;;;;;8.41;100.00;98053.16;5158410;27;20196;-51
2023/12/10 05:52:11;;;;;;;0.10;0.10;;;;;;;8.34;100.00;98047.47;5142770;27;20193;-51
2023/12/10 05:54:58;;;;;;;0.00;0.00;;;;;;;8.29;100.00;98060.97;5158361;27;20192;-52
2023/12/10 05:57:45;;;;;;;0.00;0.00;;;;;;;8.28;100.00;98058.44;5158190;27;20289;-51
2023/12/10 06:00:32;;;;;;;0.10;0.10;;;;;;;8.29;100.00;98076.78;5156872;27;20189;-51
2023/12/10 06:03:20;;;;;;;0.00;0.00;;;;;;;8.40;100.00;98069.97;5158189;27;20196;-51
2023/12/10 06:06:07;;;;;;;0.10;0.10;;;;;;;8.42;100.00;98073.31;5157568;27;20755;-51
2023/12/10 06:08:54;;;;;;;0.10;0.10;;;;;;;8.42;100.00;98075.97;5157841;27;20208;-51
2023/12/10 06:11:41;;;;;;;0.10;0.10;;;;;;;8.49;100.00;98066.63;5158100;27;20258;-51
2023/12/10 06:14:28;;;;;;;0.07;0.07;;;;;;;8.51;100.00;98070.00;5157733;27;20250;-51
2023/12/10 06:17:15;;;;;;;0.03;0.03;;;;;;;8.50;100.00;98070.97;5158005;27;20205;-51
2023/12/10 06:20:05;;;;;;;0.10;0.10;;;;;;;8.43;100.00;98078.47;5158007;27;20197;-51
2023/12/10 06:22:52;;;;;;;0.03;0.03;;;;;;;8.29;100.00;98076.78;5157695;27;20201;-51
2023/12/10 06:25:39;;;;;;;0.00;0.00;;;;;;;8.30;100.00;98077.66;5157662;27;20212;-52
2023/12/10 06:28:26;;;;;;;0.10;0.10;;;;;;;8.17;100.00;98082.97;5157521;27;20257;-51
2023/12/10 06:31:12;;;;;;;0.10;0.10;;;;;;;8.19;100.00;98093.41;5156342;27;20196;-51
2023/12/10 06:33:59;;;;;;;0.10;0.10;;;;;;;8.14;100.00;98117.47;5157716;27;20230;-51
2023/12/10 06:36:48;;;;;;;0.03;0.03;;;;;;;8.10;100.00;98113.34;5157626;27;20251;-51
2023/12/10 06:39:34;;;;;;;0.00;0.00;;;;;;;8.12;100.00;98115.91;5157255;27;20546;-51
2023/12/10 06:42:21;;;;;;;0.10;0.10;;;;;;;8.05;100.00;98128.66;5157266;27;20192;-51
2023/12/10 06:45:10;;;;;;;0.03;0.03;;;;;;;7.98;100.00;98135.31;5155984;27;20216;-51
2023/12/10 06:47:57;;;;;;;0.00;0.00;;;;;;;7.95;100.00;98148.72;5157453;27;20184;-51
2023/12/10 06:50:43;;;;;;;0.10;0.10;;;;;;;7.93;100.00;98153.25;5157473;27;20255;-51
2023/12/10 06:53:32;;;;;;;0.10;0.10;;;;;;;7.88;100.00;98161.47;5156679;27;20224;-51
2023/12/10 06:56:19;;;;;;;0.10;0.10;;;;;;;7.74;100.00;98172.13;5157167;27;20704;-51
2023/12/10 06:59:07;;;;;;;0.10;0.10;;;;;;;7.73;100.00;98181.00;5157306;27;20208;-51
2023/12/10 07:01:54;;;;;;;0.10;0.10;;;;;;;7.65;100.00;98193.84;5155948;27;20193;-50
2023/12/10 07:04:41;;;;;;;0.10;0.10;;;;;;;7.58;100.00;98201.31;5156948;27;20205;-52
2023/12/10 07:07:28;;;;;;;0.10;0.10;;;;;;;7.57;100.00;98207.53;5157402;27;20196;-52
2023/12/10 07:10:16;;;;;;;0.00;0.00;;;;;;;7.60;100.00;98223.13;5156844;27;20217;-52
2023/12/10 07:13:03;;;;;;;0.07;0.07;;;;;;;7.56;100.00;98228.72;5156788;27;20687;-51
2023/12/10 07:15:50;;;;;;;0.10;0.10;;;;;;;7.55;100.00;98227.88;5155618;27;20220;-52
2023/12/10 07:18:37;;;;;;;0.10;0.10;;;;;;;7.51;100.00;98236.91;5156759;27;20192;-52
2023/12/10 07:21:24;;;;;;;0.10;0.10;;;;;;;7.53;100.00;98255.25;5156447;27;20212;-52
2023/12/10 07:24:11;;;;;;;0.00;0.00;;;;;;;7.57;100.00;98269.91;5156864;27;20267;-52
2023/12/10 07:26:59;;;;;;;0.00;0.00;;;;;;;7.53;100.00;98268.41;5156356;27;20217;-51
2023/12/10 07:29:46;;;;;;;0.00;0.00;;;;;;;7.51;100.00;98279.06;5155285;27;20192;-52
2023/12/10 07:32:33;;;;;;;0.00;0.00;;;;;;;7.52;100.00;98280.75;5156626;27;20200;-52
2023/12/10 07:35:20;;;;;;;0.00;0.00;;;;;;;7.64;100.00;98277.31;5156294;27;20200;-52
2023/12/10 07:38:08;;;;;;;0.00;0.00;;;;;;;7.52;100.00;98288.66;5156221;27;20318;-52
2023/12/10 07:40:55;;;;;;;0.00;0.00;;;;;;;7.49;100.00;98291.50;5156190;27;20200;-51
2023/12/10 07:43:43;;;;;;;0.10;0.10;;;;;;;7.52;100.00;98304.47;5156057;27;20702;-51
2023/12/10 07:46:30;;;;;;;0.00;0.00;;;;;;;7.56;100.00;98303.34;5154777;27;20216;-52
2023/12/10 07:49:17;;;;;;;0.00;0.00;;;;;;;7.39;100.00;98301.78;5156207;27;20231;-51
2023/12/10 07:52:04;;;;;;;0.00;0.00;;;;;;;7.35;100.00;98295.03;5155914;27;20682;-52
2023/12/10 07:54:50;;;;;;;0.00;0.00;;;;;;;7.47;100.00;98293.41;5156092;27;20192;-51
2023/12/10 07:57:37;;;;;;;0.07;0.07;;;;;;;7.37;100.00;98293.16;5156225;27;20197;-52
2023/12/10 08:00:26;;;;;;;0.00;0.00;;;;;;;7.33;100.00;98296.06;5154555;27;20202;-52
2023/12/10 08:03:13;;;;;;;0.10;0.10;;;;;;;7.28;100.00;98293.75;5155928;27;20238;-52
2023/12/10 08:05:59;;;;;;;0.00;0.00;;;;;;;7.24;100.00;98289.63;5154617;27;20282;-51
2023/12/10 08:08:46;;;;;;;0.00;0.00;;;;;;;7.30;100.00;98305.00;5155621;27;20196;-51
2023/12/10 08:11:34;;;;;;;0.10;0.10;;;;;;;7.42;100.00;98308.63;5155474;27;20208;-52
2023/12/10 08:14:25;;;;;;;0.00;0.00;;;;;;;7.46;100.00;98307.50;5155359;27;20197;-52
2023/12/10 08:17:15;;;;;;;0.10;0.10;;;;;;;7.47;100.00;98315.31;5155699;27;20184;-52
2023/12/10 08:20:02;;;;;;;0.00;0.00;;;;;;;7.46;100.00;98312.78;5155388;27;20196;-52
2023/12/10 08:22:49;;;;;;;0.00;0.00;;;;;;;7.39;100.00;98316.75;5155469;27;20713;-52
2023/12/10 08:25:36;;;;;;;0.10;0.10;;;;;;;7.52;100.00;98322.91;5155514;27;20220;-52
2023/12/10 08:28:23;;;;;;;0.00;0.00;;;;;;;7.58;100.00;98324.31;5155070;27;20293;-52
2023/12/10 08:31:10;;;;;;;0.00;0.00;;;;;;;7.61;100.00;98329.38;5154272;27;20193;-52
2023/12/10 08:33:58;;;;;;;0.10;0.10;;;;;;;7.67;100.00;98348.28;5155341;27;20189;-52
2023/12/10 08:36:45;;;;;;;0.00;0.00;;;;;;;7.79;100.00;98348.41;5155168;27;20192;-52
2023/12/10 08:39:32;;;;;;;0.00;0.00;;;;;;;7.79;100.00;98357.16;5155039;27;20189;-52
2023/12/10 08:42:19;;;;;;;0.00;0.00;;;;;;;7.93;100.00;98356.28;5155080;27;20196;-52
2023/12/10 08:45:08;;;;;;;0.10;0.10;;;;;;;8.03;100.00;98347.63;5153533;27;20188;-52
2023/12/10 08:47:55;;;;;;;0.00;0.00;;;;;;;8.08;100.00;98351.75;5155139;27;20189;-52
2023/12/10 08:50:43;;;;;;;0.00;0.00;;;;;;;8.22;100.00;98343.78;5155147;27;20788;-52
2023/12/10 08:53:30;;;;;;;0.10;0.10;;;;;;;8.15;100.00;98327.50;5155098;27;20674;-51
2023/12/10 08:56:17;;;;;;;0.00;0.00;;;;;;;8.23;100.00;98325.19;5154841;27;20197;-52
2023/12/10 08:59:04;;;;;;;0.00;0.00;;;;;;;8.18;100.00;98316.75;5154498;27;20188;-52
2023/12/10 09:01:55;;;;;;;0.10;0.10;;;;;;;8.28;100.00;98319.59;5153600;27;20324;-52
2023/12/10 09:04:42;;;;;;;0.00;0.00;;;;;;;7.95;100.00;98313.03;5154763;27;20258;-52
2023/12/10 09:07:30;;;;;;;0.00;0.00;;;;;;;8.13;100.00;98328.56;5154494;27;20212;-52
2023/12/10 09:10:17;;;;;;;0.00;0.00;;;;;;;7.96;100.00;98330.53;5154658;27;20185;-51
2023/12/10 09:13:04;;;;;;;0.07;0.07;;;;;;;8.11;100.00;98326.03;5154478;27;20324;-52
2023/12/10 09:15:51;;;;;;;0.10;0.10;;;;;;;7.99;100.00;98329.47;5152709;27;20666;-52
2023/12/10 09:18:38;;;;;;;0.10;0.10;;;;;;;8.04;100.00;98333.50;5154330;27;20189;-51
2023/12/10 09:21:24;;;;;;;0.10;0.10;;;;;;;8.12;100.00;98340.91;5154593;27;20200;-51
2023/12/10 09:24:13;;;;;;;0.10;0.10;;;;;;;8.17;100.00;98343.22;5154358;27;20209;-51
2023/12/10 09:27:00;;;;;;;0.10;0.10;;;;;;;8.23;100.00;98353.38;5154094;27;20225;-52
2023/12/10 09:29:47;;;;;;;0.00;0.00;;;;;;;8.31;100.00;98344.00;5153266;27;20189;-52
2023/12/10 09:32:34;;;;;;;0.00;0.00;;;;;;;8.44;100.00;98337.91;5154348;27;20193;-51
2023/12/10 09:35:21;;;;;;;0.10;0.10;;;;;;;8.46;100.00;98342.13;5154356;27;20193;-51
2023/12/10 09:38:07;;;;;;;0.10;0.10;;;;;;;8.39;100.00;98340.84;5154130;27;20192;-52
2023/12/10 09:40:56;;;;;;;0.00;0.00;;;;;;;8.52;100.00;98325.88;5154058;27;20213;-51
2023/12/10 09:43:42;;;;;;;0.00;0.00;;;;;;;8.55;100.00;98336.22;5153450;27;20658;-52
2023/12/10 09:46:32;;;;;;;0.00;0.00;;;;;;;8.59;100.00;98331.59;5152729;27;20212;-52
2023/12/10 09:49:19;;;;;;;0.00;0.00;;;;;;;8.65;100.00;98336.41;5153978;27;20197;-52
2023/12/10 09:52:07;;;;;;;0.00;0.00;;;;;;;8.68;100.00;98336.19;5154170;27;20196;-52
2023/12/10 09:54:54;;;;;;;0.00;0.00;;;;;;;8.93;100.00;98335.34;5154171;27;20243;-51
2023/12/10 09:57:42;;;;;;;0.00;0.00;;;;;;;9.23;100.00;98347.31;5154103;27;20180;-52
2023/12/10 10:00:29;;;;;;;0.00;0.00;;;;;;;9.65;100.00;98328.38;5152940;27;20230;-52
2023/12/10 10:03:16;;;;;;;0.00;0.00;;;;;;;9.66;100.00;98335.34;5154172;27;20192;-51
2023/12/10 10:06:03;;;;;;;0.00;0.00;;;;;;;9.66;100.00;98345.06;5154018;27;20212;-52
2023/12/10 10:08:50;;;;;;;0.00;0.00;;;;;;;9.78;100.00;98345.97;5154215;27;20188;-52
2023/12/10 10:11:38;;;;;;;0.00;0.00;;;;;;;10.19;100.00;98340.22;5153964;27;20242;-52
2023/12/10 10:14:26;;;;;;;0.10;0.10;;;;;;;10.75;100.00;98341.19;5153834;27;20311;-52
2023/12/10 10:17:14;;;;;;;0.00;0.00;;;;;;;10.56;100.00;98327.69;5138306;27;20193;-51
2023/12/10 10:20:00;;;;;;;0.10;0.10;;;;;;;10.35;100.00;98332.00;5154167;27;20193;-52
2023/12/10 10:22:48;;;;;;;0.00;0.00;;;;;;;10.47;100.00;98316.00;5153763;27;20212;-52
2023/12/10 10:25:35;;;;;;;0.00;0.00;;;;;;;10.52;100.00;98310.38;5153684;27;20188;-52
2023/12/10 10:28:22;;;;;;;0.00;0.00;;;;;;;10.46;100.00;98321.44;5154422;27;20224;-52
2023/12/10 10:31:11;;;;;;;0.10;0.10;;;;;;;11.41;100.00;98306.81;5155954;27;20703;-52
2023/12/10 10:34:01;;;;;;;0.00;0.00;;;;;;;12.55;100.00;98315.84;5157638;27;20246;-52
2023/12/10 10:36:48;;;;;;;0.00;0.00;;;;;;;13.14;100.00;98314.28;5157493;27;20192;-51
2023/12/10 10:39:35;;;;;;;0.10;0.10;;;;;;;11.39;100.00;98312.25;5157429;27;20681;-51
2023/12/10 10:42:22;;;;;;;0.10;0.10;;;;;;;10.97;100.00;98334.22;5157728;27;20192;-52
2023/12/10 10:45:10;;;;;;;0.10;0.10;;;;;;;10.57;100.00;98342.63;5156058;27;20197;-51
2023/12/10 10:47:58;;;;;;;0.00;0.00;;;;;;;10.45;100.00;98328.53;5157079;27;20217;-51
2023/12/10 10:50:45;;;;;;;0.03;0.03;;;;;;;10.58;100.00;98325.78;5157265;27;20676;-52
2023/12/10 10:53:34;;;;;;;0.10;0.10;;;;;;;10.95;100.00;98325.56;5157263;27;20295;-52
2023/12/10 10:56:21;;;;;;;0.00;0.00;;;;;;;11.69;100.00;98323.97;5157201;27;20690;-51
2023/12/10 10:59:28;;;;;;;0.00;0.00;;;;;;;12.79;100.00;98322.66;5157130;27;20193;-52
2023/12/10 11:02:15;;;;;;;0.00;0.00;;;;;;;13.10;100.00;98332.31;5157135;27;20269;-52
2023/12/10 11:05:04;;;;;;;0.00;0.00;;;;;;;11.90;100.00;98314.28;5157083;27;20358;-52
2023/12/10 11:07:51;;;;;;;0.00;0.00;;;;;;;11.57;100.00;98322.31;5156913;27;20242;-52
2023/12/10 11:10:43;;;;;;;0.10;0.10;;;;;;;11.10;100.00;98303.16;5141068;27;20193;-51
2023/12/10 11:13:44;;;;;;;0.10;0.10;;;;;;;10.98;100.00;98326.13;5156922;27;20222;-52
2023/12/10 11:16:34;;;;;;;0.00;0.00;;;;;;;10.81;100.00;98326.66;5155394;27;20200;-51
2023/12/10 11:19:22;;;;;;;0.03;0.03;;;;;;;10.89;100.00;98325.06;5156687;27;20192;-52
2023/12/10 11:22:10;;;;;;;0.00;0.00;;;;;;;11.09;100.00;98327.94;5156884;27;20197;-52
2023/12/10 11:25:00;;;;;;;0.10;0.10;;;;;;;11.06;100.00;98318.44;5156488;27;20192;-52
2023/12/10 11:27:46;;;;;;;0.00;0.00;;;;;;;11.07;100.00;98312.16;5156128;27;20237;-52
2023/12/10 11:30:33;;;;;;;0.00;0.00;;;;;;;11.12;100.00;98319.75;5155302;27;20192;-52
2023/12/10 11:33:20;;;;;;;0.00;0.00;;;;;;;11.10;100.00;98330.50;5156552;27;20200;-51
2023/12/10 11:36:08;;;;;;;0.00;0.00;;;;;;;11.15;100.00;98338.06;5156326;27;20196;-52
2023/12/10 11:39:17;;;;;;;0.00;0.00;;;;;;;11.18;100.00;98338.66;5156173;27;20196;-51
2023/12/10 11:42:04;;;;;;;0.03;0.03;;;;;;;11.18;100.00;98325.41;5156176;27;20239;-52
2023/12/10 11:44:52;;;;;;;0.00;0.00;;;;;;;11.46;100.00;98326.69;5154994;27;20204;-52
2023/12/10 11:47:41;;;;;;;0.00;0.00;;;;;;;12.44;100.00;98329.19;5155871;27;20235;-52
2023/12/10 11:50:28;;;;;;;0.00;0.00;;;;;;;12.46;100.00;98329.06;5156027;27;20189;-52
2023/12/10 11:53:16;;;;;;;0.00;0.00;;;;;;;13.08;100.00;98328.94;5156079;27;20201;-52
2023/12/10 11:56:05;;;;;;;0.10;0.10;;;;;;;12.56;100.00;98344.09;5155991;27;20197;-52
2023/12/10 11:58:52;;;;;;;0.00;0.00;;;;;;;11.99;100.00;98333.91;5155895;27;20223;-52
2023/12/10 12:01:39;;;;;;;0.10;0.10;;;;;;;11.66;100.00;98335.66;5154338;27;20212;-52
2023/12/10 12:04:28;;;;;;;0.10;0.10;;;;;;;13.41;100.00;98333.16;5155655;27;20250;-52
2023/12/10 12:07:25;;;;;;;0.00;0.00;;;;;;;14.00;100.00;98344.72;5155565;27;20212;-52
2023/12/10 12:10:13;;;;;;;0.10;0.10;;;;;;;14.87;100.00;98332.13;5155661;27;20262;-52
2023/12/10 12:13:01;;;;;;;0.00;0.00;;;;;;;13.49;100.00;98326.28;5155893;27;20189;-52
2023/12/10 12:15:49;;;;;;;0.00;0.00;;;;;;;12.68;100.00;98320.09;5154432;27;20287;-52
2023/12/10 12:18:36;;;;;;;0.00;0.00;;;;;;;12.46;100.00;98316.63;5155345;27;20197;-52
2023/12/10 12:21:23;;;;;;;0.10;0.10;;;;;;;12.29;100.00;98334.00;5155557;27;20196;-52
2023/12/10 12:24:09;;;;;;;0.00;0.00;;;;;;;11.76;100.00;98323.31;5155395;27;20281;-52
2023/12/10 12:26:56;;;;;;;0.10;0.10;;;;;;;12.36;100.00;98326.34;5155053;27;20263;-52
2023/12/10 12:29:44;;;;;;;0.10;0.10;;;;;;;12.79;100.00;98338.63;5153820;27;20196;-52
2023/12/10 12:32:32;;;;;;;0.10;0.10;;;;;;;12.81;100.00;98321.56;5155173;27;20670;-51
2023/12/10 12:35:20;;;;;;;0.10;0.10;;;;;;;13.31;100.00;98329.59;5155288;27;20639;-51
2023/12/10 12:38:07;;;;;;;0.10;0.10;;;;;;;13.02;100.00;98329.47;5155153;27;20188;-51
2023/12/10 12:40:54;;;;;;;0.10;0.10;;;;;;;12.51;100.00;98310.91;5155071;27;20218;-52
2023/12/10 12:43:41;;;;;;;0.10;0.10;;;;;;;11.92;100.00;98316.78;5154761;27;20256;-53
2023/12/10 12:46:29;;;;;;;0.10;0.10;;;;;;;11.39;100.00;98317.56;5153655;27;20205;-53
2023/12/10 12:49:16;;;;;;;0.00;0.00;;;;;;;11.12;100.00;98317.94;5154724;27;20251;-53
2023/12/10 12:52:05;;;;;;;0.00;0.00;;;;;;;11.20;100.00;98321.81;5154415;27;20202;-53
2023/12/10 12:54:52;;;;;;;0.10;0.10;;;;;;;11.23;100.00;98332.16;5154717;27;20197;-53
2023/12/10 12:57:39;;;;;;;0.00;0.00;;;;;;;11.02;100.00;98332.06;5154933;27;20208;-53
2023/12/10 13:00:26;;;;;;;0.10;0.10;;;;;;;11.06;100.00;98325.53;5153620;27;20200;-53
2023/12/10 13:03:14;;;;;;;0.10;0.10;;;;;;;11.01;100.00;98338.31;5154565;27;20192;-53
2023/12/10 13:06:01;;;;;;;0.00;0.00;;;;;;;11.10;100.00;98324.34;5154893;27;20241;-53